Time;durP1;ratioP1;P1;durP2;ratioP2;P2;SDS_P1;SDS_P2;PMS_P1;PMS_P2;Temp;Humidity;BMP_temperature;BMP_pressure;BME280_temperature;BME280_humidity;BME280_pressure;Samples;Min_cycle;Max_cycle;Signal;HPM_P1;HPM_P2
2022/06/21 00:01:27;;;;;;;9.63;2.60;;;9.50;99.90;;;;;;6220091;23;20012;-82
2022/06/21 00:03:54;;;;;;;10.57;2.90;;;9.40;99.90;;;;;;6247649;23;20020;-82
2022/06/21 00:06:23;;;;;;;9.70;3.13;;;9.40;99.90;;;;;;6247219;23;20012;-82
2022/06/21 00:08:49;;;;;;;16.67;3.00;;;9.40;99.90;;;;;;6220528;23;20081;-82
2022/06/21 00:11:30;;;;;;;11.48;2.85;;;9.30;99.90;;;;;;6220518;23;20116;-82
2022/06/21 00:13:56;;;;;;;7.70;3.05;;;9.30;99.90;;;;;;6220128;23;20070;-82
2022/06/21 00:16:25;;;;;;;6.95;2.90;;;9.30;99.90;;;;;;6220243;23;20068;-82
2022/06/21 00:18:51;;;;;;;9.65;3.17;;;9.30;99.90;;;;;;6246963;23;20478;-82
2022/06/21 00:21:21;;;;;;;10.75;2.78;;;9.20;99.90;;;;;;6247144;23;20018;-82
2022/06/21 00:23:49;;;;;;;10.90;2.83;;;9.30;99.90;;;;;;6220350;23;20435;-82
2022/06/21 00:26:17;;;;;;;10.38;2.70;;;9.30;99.90;;;;;;6247010;23;20016;-82
2022/06/21 00:28:43;;;;;;;12.38;3.15;;;9.20;99.90;;;;;;6247170;23;20020;-82
2022/06/21 00:31:21;;;;;;;9.88;2.90;;;9.20;99.90;;;;;;6220235;23;20024;-82
2022/06/21 00:33:47;;;;;;;9.02;2.83;;;9.10;99.90;;;;;;6247481;23;20016;-82
2022/06/21 00:36:34;;;;;;;8.25;2.83;;;9.10;99.90;;;;;;6246876;23;20016;-82
2022/06/21 00:39:02;;;;;;;10.23;3.28;;;9.10;99.90;;;;;;6246436;23;20463;-82
2022/06/21 00:41:42;;;;;;;11.05;2.97;;;9.00;99.90;;;;;;6220069;23;20016;-82
2022/06/21 00:44:11;;;;;;;10.90;3.33;;;9.00;99.90;;;;;;6246804;23;20016;-82
2022/06/21 00:46:47;;;;;;;11.80;3.15;;;9.00;99.90;;;;;;6247182;23;20166;-81
2022/06/21 00:49:25;;;;;;;9.60;3.17;;;8.90;99.90;;;;;;6220122;23;20027;-82
2022/06/21 00:51:57;;;;;;;11.65;3.78;;;8.90;99.90;;;;;;6247150;23;20047;-82
2022/06/21 00:54:32;;;;;;;8.50;3.30;;;8.90;99.90;;;;;;6195350;23;20055;-81
2022/06/21 00:57:04;;;;;;;12.93;3.55;;;8.90;99.90;;;;;;6246659;23;20070;-82
2022/06/21 00:59:33;;;;;;;11.27;3.17;;;8.80;99.90;;;;;;6246518;23;20043;-82
2022/06/21 01:02:03;;;;;;;9.88;3.53;;;8.80;99.90;;;;;;6246653;23;20082;-82
2022/06/21 01:04:39;;;;;;;7.35;2.92;;;8.80;99.90;;;;;;6246610;23;20031;-82
2022/06/21 01:07:09;;;;;;;12.20;3.38;;;8.80;99.90;;;;;;6219422;23;20016;-81
2022/06/21 01:09:59;;;;;;;9.60;3.50;;;8.80;99.90;;;;;;6246647;23;20048;-82
2022/06/21 01:12:31;;;;;;;7.63;2.92;;;8.70;99.90;;;;;;6128992;23;20021;-81
2022/06/21 01:15:00;;;;;;;10.68;3.53;;;8.70;99.90;;;;;;6153593;23;20021;-81
2022/06/21 01:17:28;;;;;;;11.32;3.47;;;8.70;99.90;;;;;;6128971;23;20049;-81
2022/06/21 01:20:03;;;;;;;10.48;3.40;;;8.70;99.90;;;;;;6154210;23;20401;-81
2022/06/21 01:22:56;;;;;;;10.45;3.50;;;8.70;99.90;;;;;;6153359;23;20025;-81
2022/06/21 01:25:45;;;;;;;12.13;3.55;;;8.60;99.90;;;;;;6153591;23;20395;-82
2022/06/21 01:28:11;;;;;;;8.90;3.75;;;8.60;99.90;;;;;;6129309;23;20465;-82
2022/06/21 01:30:38;;;;;;;13.43;3.50;;;8.60;99.90;;;;;;6128858;23;20068;-81
2022/06/21 01:33:05;;;;;;;11.30;3.55;;;8.60;99.90;;;;;;6153659;23;20018;-81
2022/06/21 01:35:40;;;;;;;12.07;3.28;;;8.50;99.90;;;;;;6153487;23;20017;-81
2022/06/21 01:38:12;;;;;;;11.77;3.92;;;8.50;99.90;;;;;;6129037;23;20450;-81
2022/06/21 01:40:46;;;;;;;10.88;3.95;;;8.50;99.90;;;;;;6153727;23;20489;-81
2022/06/21 01:43:16;;;;;;;13.32;3.38;;;8.50;99.90;;;;;;6128919;23;20061;-81
2022/06/21 01:45:47;;;;;;;9.55;3.80;;;8.50;99.90;;;;;;6153420;23;20022;-81
2022/06/21 01:48:16;;;;;;;12.90;4.22;;;8.50;99.90;;;;;;6153281;23;20060;-82
2022/06/21 01:50:44;;;;;;;9.57;4.05;;;8.50;99.90;;;;;;6246544;23;20095;-81
2022/06/21 01:53:12;;;;;;;15.13;4.30;;;8.50;99.90;;;;;;6219601;23;20363;-82
2022/06/21 01:55:44;;;;;;;11.57;4.53;;;8.50;99.90;;;;;;6246938;23;20078;-81
2022/06/21 01:58:16;;;;;;;9.55;4.13;;;8.50;99.90;;;;;;6246467;23;20023;-81
2022/06/21 02:00:47;;;;;;;9.35;3.40;;;8.50;99.90;;;;;;6214288;23;20032;-81
2022/06/21 02:03:18;;;;;;;11.10;3.78;;;8.50;99.90;;;;;;6214482;23;20013;-82
2022/06/21 02:05:50;;;;;;;10.57;3.38;;;8.40;99.90;;;;;;6214692;23;20381;-81
2022/06/21 02:08:20;;;;;;;10.43;3.40;;;8.40;99.90;;;;;;6216366;23;20066;-81
2022/06/21 02:10:55;;;;;;;7.63;3.40;;;8.40;99.90;;;;;;6216072;23;20028;-81
2022/06/21 02:13:36;;;;;;;11.20;3.42;;;8.40;99.90;;;;;;6215895;23;20014;-82
2022/06/21 02:16:04;;;;;;;;;;;8.30;99.90;;;;;;6216959;23;20020;-82
2022/06/21 02:18:34;;;;;;;12.45;3.90;;;8.30;99.90;;;;;;6214151;23;20252;-81
2022/06/21 02:21:19;;;;;;;10.52;4.53;;;8.30;99.90;;;;;;6216006;23;20016;-82
2022/06/21 02:23:53;;;;;;;11.18;4.10;;;8.20;99.90;;;;;;6216079;23;20071;-81
2022/06/21 02:26:21;;;;;;;10.77;4.35;;;8.20;99.90;;;;;;6214463;23;20013;-81
2022/06/21 02:28:48;;;;;;;8.20;3.70;;;8.30;99.90;;;;;;6214272;23;20020;-82
2022/06/21 02:31:13;;;;;;;8.77;4.30;;;8.30;99.90;;;;;;6216009;23;20012;-81
2022/06/21 02:33:41;;;;;;;11.55;4.07;;;8.30;99.90;;;;;;6214365;23;20389;-81
2022/06/21 02:36:19;;;;;;;8.10;3.97;;;8.20;99.90;;;;;;6215846;23;20021;-81
2022/06/21 02:38:55;;;;;;;15.27;4.07;;;8.20;99.90;;;;;;6215345;23;20518;-82
2022/06/21 02:41:28;;;;;;;9.85;4.20;;;8.20;99.90;;;;;;6214295;23;20088;-81
2022/06/21 02:43:59;;;;;;;8.20;4.28;;;8.10;99.90;;;;;;6214470;23;20017;-82
2022/06/21 02:46:34;;;;;;;15.32;4.53;;;8.30;99.90;;;;;;6216086;23;20012;-81
2022/06/21 02:49:14;;;;;;;10.40;3.65;;;8.10;99.90;;;;;;6215821;23;20032;-81
2022/06/21 02:51:47;;;;;;;12.23;4.13;;;8.10;99.90;;;;;;6217245;23;20056;-81
2022/06/21 02:54:12;;;;;;;9.48;4.47;;;8.00;99.90;;;;;;6190933;23;20012;-81
2022/06/21 02:57:11;;;;;;;15.20;4.95;;;8.00;99.90;;;;;;6217407;23;20518;-81
2022/06/21 02:59:39;;;;;;;9.73;4.28;;;8.00;99.90;;;;;;6124321;23;20024;-81
2022/06/21 03:02:11;;;;;;;11.02;4.60;;;8.00;99.90;;;;;;6124520;23;20022;-81
2022/06/21 03:04:49;;;;;;;9.90;4.50;;;8.00;99.90;;;;;;6100558;23;20080;-81
2022/06/21 03:07:21;;;;;;;12.27;5.07;;;8.00;99.90;;;;;;6100813;23;20072;-82
2022/06/21 03:09:47;;;;;;;18.00;5.03;;;8.00;99.90;;;;;;6125363;23;20032;-81
2022/06/21 03:12:20;;;;;;;11.10;3.97;;;8.00;99.90;;;;;;6125278;23;20065;-83
2022/06/21 03:14:48;;;;;;;12.43;5.15;;;8.00;99.90;;;;;;6125236;23;20018;-81
2022/06/21 03:17:17;;;;;;;20.50;5.22;;;8.20;99.90;;;;;;6100864;23;20406;-82
2022/06/21 03:19:52;;;;;;;10.60;3.85;;;7.90;99.90;;;;;;6075598;23;20470;-81
2022/06/21 03:22:24;;;;;;;9.02;4.20;;;8.00;99.90;;;;;;6100883;23;20018;-82
2022/06/21 03:24:54;;;;;;;9.55;4.32;;;8.00;99.90;;;;;;6100539;23;20029;-80
2022/06/21 03:27:36;;;;;;;8.23;4.30;;;8.00;99.90;;;;;;6125019;23;20022;-80
2022/06/21 03:30:03;;;;;;;13.02;4.22;;;8.00;99.90;;;;;;6100735;23;20018;-80
2022/06/21 03:32:35;;;;;;;9.50;4.65;;;7.90;99.90;;;;;;6101043;23;20161;-80
2022/06/21 03:35:01;;;;;;;;;;;7.90;99.90;;;;;;6137237;23;20018;-80
2022/06/21 03:37:27;;;;;;;12.82;4.45;;;8.10;99.90;;;;;;6217191;23;19916;-80
2022/06/21 03:42:41;;;;;;;8.80;4.28;;;8.10;99.90;;;;;;6217189;23;20373;-79
2022/06/21 03:45:20;;;;;;;10.95;4.45;;;7.90;99.90;;;;;;6217090;23;20067;-80
2022/06/21 03:47:53;;;;;;;14.57;4.40;;;8.00;99.90;;;;;;6215796;23;20021;-80
2022/06/21 03:50:28;;;;;;;11.60;4.85;;;8.00;99.90;;;;;;6217114;23;20028;-80
2022/06/21 03:53:15;;;;;;;11.85;4.68;;;7.90;99.90;;;;;;6217094;23;20087;-80
2022/06/21 03:56:07;;;;;;;8.43;5.03;;;8.00;99.90;;;;;;6217051;23;20020;-80
2022/06/21 03:59:08;;;;;;;9.55;4.80;;;8.20;99.90;;;;;;6076069;23;20096;-80
2022/06/21 04:01:50;;;;;;;12.32;5.30;;;8.10;99.90;;;;;;6099808;23;20022;-80
2022/06/21 04:04:43;;;;;;;13.07;5.53;;;8.20;99.90;;;;;;6124829;23;20022;-80
2022/06/21 04:07:30;;;;;;;11.30;5.10;;;8.20;99.90;;;;;;6076186;23;20410;-80
2022/06/21 04:10:15;;;;;;;12.20;5.00;;;8.30;99.90;;;;;;6100790;23;20213;-80
2022/06/21 04:12:49;;;;;;;11.77;4.80;;;8.30;99.90;;;;;;6100256;23;20022;-80
2022/06/21 04:15:31;;;;;;;10.20;4.75;;;8.40;99.90;;;;;;6124473;23;20022;-80
2022/06/21 04:18:18;;;;;;;7.93;4.57;;;8.40;99.90;;;;;;6100277;23;20063;-80
2022/06/21 04:21:00;;;;;;;11.02;4.80;;;8.50;99.90;;;;;;6124834;23;20087;-80
2022/06/21 04:23:43;;;;;;;12.10;5.60;;;8.60;99.90;;;;;;6124564;23;20472;-82
2022/06/21 04:26:34;;;;;;;12.70;4.53;;;8.70;99.90;;;;;;6100671;23;20086;-82
2022/06/21 04:29:10;;;;;;;13.43;5.55;;;8.80;99.90;;;;;;6100040;23;20062;-82
2022/06/21 04:31:51;;;;;;;12.70;5.28;;;8.80;99.90;;;;;;6076135;23;20057;-80
2022/06/21 04:34:26;;;;;;;11.68;5.72;;;8.90;99.90;;;;;;6100067;23;20489;-80
2022/06/21 04:37:04;;;;;;;11.15;5.97;;;9.00;99.90;;;;;;6216913;23;20400;-80
2022/06/21 04:39:34;;;;;;;9.85;5.80;;;9.10;99.90;;;;;;6216618;23;20074;-80
2022/06/21 04:42:04;;;;;;;14.20;6.60;;;9.40;99.90;;;;;;6215041;23;20023;-80
2022/06/21 04:44:41;;;;;;;11.65;6.40;;;9.40;99.90;;;;;;6190196;23;20023;-80
2022/06/21 04:47:23;;;;;;;10.63;5.93;;;9.50;99.90;;;;;;6216717;23;20353;-80
2022/06/21 04:50:02;;;;;;;10.35;6.32;;;9.60;99.90;;;;;;6166311;23;20021;-80
2022/06/21 04:52:35;;;;;;;14.20;5.97;;;9.70;99.90;;;;;;6216971;23;20063;-80
2022/06/21 04:55:03;;;;;;;15.35;7.13;;;9.80;99.90;;;;;;6215053;23;20021;-80
2022/06/21 04:57:31;;;;;;;11.98;7.18;;;9.90;99.90;;;;;;6216429;23;20056;-80
2022/06/21 05:00:03;;;;;;;12.00;7.25;;;9.90;99.90;;;;;;6222708;23;20027;-80
2022/06/21 05:02:34;;;;;;;12.55;7.65;;;10.20;99.90;;;;;;6247060;23;20024;-80
2022/06/21 05:05:04;;;;;;;17.60;7.95;;;10.10;99.90;;;;;;6246696;23;20019;-80
2022/06/21 05:07:36;;;;;;;16.60;7.25;;;10.20;99.90;;;;;;6246860;23;20091;-80
2022/06/21 05:10:02;;;;;;;10.18;6.07;;;10.30;99.90;;;;;;6246533;23;20092;-80
2022/06/21 05:12:39;;;;;;;13.52;6.97;;;10.40;99.90;;;;;;6246583;23;20180;-80
2022/06/21 05:15:11;;;;;;;13.38;6.63;;;10.50;99.90;;;;;;6246596;23;20474;-80
2022/06/21 05:17:41;;;;;;;11.18;5.90;;;10.50;99.90;;;;;;6246743;23;20066;-80
2022/06/21 05:20:15;;;;;;;10.85;5.75;;;10.60;99.90;;;;;;6246642;23;20332;-80
2022/06/21 05:22:44;;;;;;;12.40;6.07;;;10.70;99.90;;;;;;6246465;23;20344;-81
2022/06/21 05:25:27;;;;;;;13.20;5.75;;;10.90;99.90;;;;;;6219874;23;20016;-81
2022/06/21 05:28:04;;;;;;;11.25;5.97;;;10.90;99.90;;;;;;6246548;23;20024;-81
2022/06/21 05:30:39;;;;;;;10.60;4.63;;;11.00;99.90;;;;;;6246668;23;20017;-80
2022/06/21 05:33:40;;;;;;;9.00;5.78;;;11.10;99.90;;;;;;6219574;23;20455;-80
2022/06/21 05:36:13;;;;;;;11.15;4.45;;;11.20;99.90;;;;;;6246843;23;20028;-81
2022/06/21 05:38:56;;;;;;;10.68;4.40;;;11.40;99.90;;;;;;6219796;23;20078;-81
2022/06/21 05:41:29;;;;;;;11.38;5.57;;;11.60;99.90;;;;;;6246331;23;20395;-82
2022/06/21 05:43:59;;;;;;;11.90;4.75;;;11.80;99.90;;;;;;6246870;23;20042;-81
2022/06/21 05:46:28;;;;;;;5.88;3.55;;;11.80;99.90;;;;;;6220120;23;20024;-81
2022/06/21 05:48:55;;;;;;;10.02;4.10;;;12.00;99.90;;;;;;6246377;23;20051;-81
2022/06/21 05:51:26;;;;;;;9.90;3.60;;;12.10;99.90;;;;;;6219598;23;20013;-81
2022/06/21 05:53:57;;;;;;;10.93;3.17;;;12.20;99.90;;;;;;6246321;23;20019;-82
2022/06/21 05:56:25;;;;;;;6.13;2.53;;;12.40;99.90;;;;;;6246877;23;20016;-81
2022/06/21 05:58:55;;;;;;;6.10;2.40;;;12.50;99.90;;;;;;6246509;23;20079;-81
2022/06/21 06:01:23;;;;;;;6.97;2.80;;;12.70;99.90;;;;;;6245974;23;20090;-81
2022/06/21 06:04:00;;;;;;;9.27;2.88;;;12.70;99.90;;;;;;6246241;23;20059;-81
2022/06/21 06:06:34;;;;;;;10.63;3.40;;;12.80;99.90;;;;;;6246797;23;20085;-83
2022/06/21 06:09:13;;;;;;;6.35;2.80;;;12.80;99.90;;;;;;6246652;23;20134;-80
2022/06/21 06:12:00;;;;;;;6.07;2.17;;;12.90;99.90;;;;;;6219884;23;20043;-80
2022/06/21 06:14:41;;;;;;;9.38;2.10;;;13.00;99.90;;;;;;6219998;23;20022;-81
2022/06/21 06:17:33;;;;;;;11.25;2.40;;;13.10;99.90;;;;;;6219634;23;20016;-81
2022/06/21 06:20:24;;;;;;;10.70;2.55;;;13.30;99.90;;;;;;6246328;23;20016;-81
2022/06/21 06:23:25;;;;;;;8.20;2.58;;;13.30;99.90;;;;;;6246566;23;20012;-81
2022/06/21 06:25:56;;;;;;;9.90;3.05;;;13.50;99.90;;;;;;6247071;23;20439;-79
2022/06/21 06:28:37;;;;;;;8.02;2.95;;;13.80;99.90;;;;;;6248491;23;20436;-80
2022/06/21 06:31:09;;;;;;;12.13;2.10;;;13.90;99.90;;;;;;6248496;23;20293;-81
2022/06/21 06:33:41;;;;;;;10.50;2.80;;;14.10;99.90;;;;;;6248434;23;20016;-81
2022/06/21 06:36:14;;;;;;;8.77;2.17;;;14.30;99.90;;;;;;6221217;23;20023;-81
2022/06/21 06:38:41;;;;;;;6.43;2.08;;;14.60;99.90;;;;;;6248184;23;20016;-81
2022/06/21 06:41:31;;;;;;;8.35;1.63;;;15.00;99.90;;;;;;6221697;23;20016;-81
2022/06/21 06:44:01;;;;;;;9.10;2.13;;;15.40;99.90;;;;;;6249337;23;20016;-81
2022/06/21 06:46:27;;;;;;;8.15;2.25;;;15.60;99.90;;;;;;6222517;23;20386;-82
2022/06/21 06:49:11;;;;;;;10.40;2.60;;;15.70;99.90;;;;;;6248545;23;20059;-81
2022/06/21 06:51:45;;;;;;;6.55;1.85;;;15.80;99.90;;;;;;6248689;23;20052;-81
2022/06/21 06:54:19;;;;;;;6.68;1.95;;;15.90;99.90;;;;;;6221397;23;20024;-81
2022/06/21 06:57:00;;;;;;;7.25;1.58;;;15.90;99.90;;;;;;6248177;23;20332;-81
2022/06/21 06:59:25;;;;;;;8.98;1.67;;;15.80;99.90;;;;;;6248097;23;20077;-81
2022/06/21 07:01:57;;;;;;;6.50;1.55;;;16.00;99.90;;;;;;6249906;23;20051;-81
2022/06/21 07:04:24;;;;;;;7.45;1.55;;;17.20;99.90;;;;;;6248343;23;20019;-81
2022/06/21 07:06:56;;;;;;;6.15;1.67;;;18.50;99.90;;;;;;6249113;23;20022;-81
2022/06/21 07:09:30;;;;;;;7.43;1.38;;;19.70;99.90;;;;;;6223296;23;20066;-81
2022/06/21 07:12:18;;;;;;;8.60;1.80;;;20.70;99.90;;;;;;6221524;23;20418;-82
2022/06/21 07:14:46;;;;;;;7.53;2.55;;;21.40;99.90;;;;;;6248018;23;20012;-82
2022/06/21 07:17:37;;;;;;;8.05;2.28;;;21.70;99.90;;;;;;6221685;23;20332;-82
2022/06/21 07:20:11;;;;;;;7.13;1.95;;;22.30;99.90;;;;;;6195930;23;20020;-82
2022/06/21 07:22:37;;;;;;;6.53;1.67;;;22.60;99.30;;;;;;6248090;23;20021;-82
2022/06/21 07:25:36;;;;;;;9.43;2.60;;;23.00;94.40;;;;;;6247380;23;20014;-82
2022/06/21 07:28:26;;;;;;;6.90;2.30;;;23.40;91.90;;;;;;6154679;23;20018;-82
2022/06/21 07:30:55;;;;;;;4.63;1.73;;;23.70;87.00;;;;;;6067738;23;20019;-82
2022/06/21 07:33:28;;;;;;;5.65;2.17;;;24.00;84.90;;;;;;6068610;23;20019;-82
2022/06/21 07:36:01;;;;;;;5.53;1.90;;;24.50;76.90;;;;;;6066968;23;20018;-82
2022/06/21 07:38:41;;;;;;;10.50;2.03;;;24.70;73.70;;;;;;6067199;23;20470;-82
2022/06/21 07:41:16;;;;;;;8.07;2.22;;;24.90;71.10;;;;;;6066653;23;20442;-83
2022/06/21 07:43:46;;;;;;;9.80;3.00;;;24.90;67.40;;;;;;6043705;23;20023;-83
2022/06/21 07:46:20;;;;;;;5.47;2.00;;;23.80;72.90;;;;;;6043304;23;20030;-82
2022/06/21 07:48:59;;;;;;;7.72;2.22;;;23.20;78.80;;;;;;6067320;23;20026;-82
2022/06/21 07:51:39;;;;;;;7.07;2.38;;;23.60;78.50;;;;;;6043163;23;20143;-82
2022/06/21 07:54:16;;;;;;;6.22;2.30;;;24.30;66.50;;;;;;6066754;23;20159;-83
2022/06/21 07:56:47;;;;;;;9.23;2.38;;;24.70;66.10;;;;;;6066788;23;20451;-83
2022/06/21 07:59:18;;;;;;;7.63;2.00;;;25.20;66.10;;;;;;6043120;23;20074;-83
2022/06/21 08:08:10;;;;;;;6.15;1.88;;;26.20;60.20;;;;;;6157845;23;20020;-82
2022/06/21 08:10:41;;;;;;;5.10;1.40;;;26.30;58.90;;;;;;6247310;23;20013;-83
2022/06/21 08:13:07;;;;;;;4.65;1.45;;;26.50;58.00;;;;;;6220676;23;20258;-83
2022/06/21 08:15:39;;;;;;;3.80;1.35;;;27.00;56.30;;;;;;6247517;23;20016;-83
2022/06/21 08:18:19;;;;;;;7.18;1.40;;;27.70;53.90;;;;;;6247741;23;20023;-84
2022/06/21 08:20:57;;;;;;;6.38;1.35;;;28.20;52.30;;;;;;6223626;23;20012;-83
2022/06/21 08:23:48;;;;;;;5.35;1.40;;;28.50;50.80;;;;;;6247231;23;20047;-83
2022/06/21 08:26:17;;;;;;;3.83;1.50;;;28.80;50.20;;;;;;6247841;23;20106;-83
2022/06/21 08:28:53;;;;;;;5.18;1.50;;;28.80;49.30;;;;;;6249085;23;20012;-85
2022/06/21 08:31:36;;;;;;;2.22;1.00;;;28.70;49.30;;;;;;6196742;23;20024;-83
2022/06/21 08:34:19;;;;;;;4.78;1.40;;;28.70;48.30;;;;;;6247519;23;20055;-83
2022/06/21 08:36:55;;;;;;;6.30;1.50;;;28.80;48.10;;;;;;6220620;23;20098;-83
2022/06/21 08:39:40;;;;;;;4.50;1.48;;;28.80;47.30;;;;;;6220810;23;20043;-84
2022/06/21 08:42:55;;;;;;;4.70;1.00;;;28.80;47.60;;;;;;6247429;23;20016;-84
2022/06/21 08:45:42;;;;;;;3.38;1.20;;;29.20;47.50;;;;;;6220549;23;20095;-84
2022/06/21 08:48:56;;;;;;;3.13;1.00;;;29.40;46.70;;;;;;6247085;23;20166;-83
2022/06/21 08:51:30;;;;;;;3.38;1.27;;;29.60;45.00;;;;;;6154218;23;20092;-83
2022/06/21 08:54:31;;;;;;;5.72;1.70;;;29.40;46.40;;;;;;6129456;23;20048;-83
2022/06/21 08:57:10;;;;;;;5.28;1.30;;;29.10;45.40;;;;;;6153726;23;20022;-83
2022/06/21 08:59:54;;;;;;;5.38;1.50;;;28.70;46.50;;;;;;6153682;23;20052;-83
2022/06/21 09:02:56;;;;;;;4.25;1.20;;;28.90;45.80;;;;;;6153957;23;20100;-83
2022/06/21 09:05:33;;;;;;;4.55;1.20;;;29.20;46.00;;;;;;6153788;23;20079;-83
2022/06/21 09:08:17;;;;;;;6.65;1.33;;;29.40;45.40;;;;;;6129272;23;20053;-83
2022/06/21 09:11:11;;;;;;;3.35;1.05;;;29.50;45.40;;;;;;6153830;23;20017;-83
2022/06/21 09:13:54;;;;;;;4.60;1.20;;;29.70;46.60;;;;;;6128931;23;20397;-83
2022/06/21 09:16:50;;;;;;;3.10;1.20;;;30.00;45.60;;;;;;6129081;23;20018;-84
2022/06/21 09:19:53;;;;;;;3.70;1.40;;;30.50;44.10;;;;;;6066222;23;20019;-84
2022/06/21 09:22:46;;;;;;;4.38;0.95;;;31.00;43.40;;;;;;6018878;23;20506;-83
2022/06/21 09:25:17;;;;;;;4.75;1.27;;;31.30;44.30;;;;;;6066104;23;20120;-83
2022/06/21 09:27:51;;;;;;;5.35;1.40;;;31.60;42.10;;;;;;6083602;23;20022;-84
2022/06/21 09:30:26;;;;;;;6.10;1.17;;;31.30;42.80;;;;;;6094648;23;20018;-84
2022/06/21 09:33:29;;;;;;;3.25;1.05;;;31.30;42.70;;;;;;6094859;23;20026;-84
2022/06/21 09:36:06;;;;;;;3.83;1.33;;;31.40;42.00;;;;;;6094482;23;20088;-84
2022/06/21 09:38:40;;;;;;;4.63;1.13;;;31.20;42.70;;;;;;6095100;23;20331;-84
2022/06/21 09:41:11;;;;;;;5.38;1.38;;;30.50;43.30;;;;;;6070983;23;20014;-85
2022/06/21 09:43:48;;;;;;;5.72;1.08;;;30.00;44.60;;;;;;6094855;23;20104;-83
2022/06/21 09:46:34;;;;;;;3.25;1.20;;;30.30;44.10;;;;;;6095305;23;20019;-84
2022/06/21 09:49:19;;;;;;;5.47;1.23;;;30.70;43.00;;;;;;6094973;23;20026;-83
2022/06/21 09:52:17;;;;;;;6.72;1.40;;;30.90;41.50;;;;;;6071409;23;20022;-84
2022/06/21 09:54:57;;;;;;;4.13;1.13;;;30.80;41.80;;;;;;6094274;23;20049;-84
2022/06/21 09:57:41;;;;;;;;;;;31.00;43.20;;;;;;6246990;23;20017;-83
2022/06/21 10:00:18;;;;;;;2.45;0.90;;;31.20;42.10;;;;;;6219809;23;20311;-84
2022/06/21 10:02:43;;;;;;;5.35;2.10;;;31.20;42.60;;;;;;6248609;23;20012;-85
2022/06/21 10:05:22;;;;;;;5.85;2.25;;;30.80;42.00;;;;;;6221698;23;20031;-84
2022/06/21 10:08:18;;;;;;;3.58;1.20;;;30.30;41.40;;;;;;6222094;23;20051;-83
2022/06/21 10:11:02;;;;;;;3.80;1.00;;;29.00;43.00;;;;;;6221907;23;20020;-83
2022/06/21 10:13:43;;;;;;;4.07;0.90;;;28.40;44.30;;;;;;6249033;23;20020;-83
2022/06/21 10:16:36;;;;;;;2.60;0.98;;;27.90;44.20;;;;;;6248497;23;20098;-82
2022/06/21 10:19:23;;;;;;;3.05;0.70;;;27.60;45.60;;;;;;6248655;23;20022;-83
2022/06/21 10:22:11;;;;;;;7.13;1.10;;;28.30;44.00;;;;;;6248153;23;20020;-82
2022/06/21 10:24:58;;;;;;;3.60;1.00;;;29.20;43.00;;;;;;6248741;23;20020;-84
2022/06/21 10:28:01;;;;;;;3.20;1.02;;;29.40;42.50;;;;;;6221305;23;20023;-84
2022/06/21 10:30:43;;;;;;;6.88;1.25;;;29.90;43.00;;;;;;6248232;23;20027;-83
2022/06/21 10:33:11;;;;;;;3.60;1.00;;;29.90;41.70;;;;;;6221344;23;20024;-84
2022/06/21 10:35:47;;;;;;;3.97;1.40;;;29.80;42.90;;;;;;6196175;23;20056;-83
2022/06/21 10:38:28;;;;;;;3.85;1.20;;;30.00;43.20;;;;;;6221917;23;20022;-83
2022/06/21 10:41:05;;;;;;;3.90;1.25;;;30.40;41.80;;;;;;6248137;23;20027;-83
2022/06/21 10:43:57;;;;;;;4.93;1.00;;;30.60;41.10;;;;;;6247950;23;20058;-83
2022/06/21 10:46:33;;;;;;;4.63;1.05;;;30.50;42.20;;;;;;6248441;23;20394;-84
2022/06/21 10:49:30;;;;;;;1.92;0.90;;;30.80;43.30;;;;;;6248081;23;20023;-83
2022/06/21 10:52:47;;;;;;;2.72;0.90;;;31.40;41.50;;;;;;6221509;23;20027;-84
2022/06/21 10:55:27;;;;;;;4.95;1.20;;;31.70;40.30;;;;;;6157101;23;20108;-83
2022/06/21 10:58:19;;;;;;;3.13;1.00;;;31.30;39.90;;;;;;6134506;23;20017;-83
2022/06/21 11:03:52;;;;;;;1.95;1.00;;;31.20;39.50;;;;;;6155274;23;20509;-83
2022/06/21 11:06:33;;;;;;;4.40;0.90;;;31.10;39.60;;;;;;6155052;23;20412;-83
2022/06/21 11:09:11;;;;;;;3.50;1.23;;;29.90;41.60;;;;;;6154952;23;20068;-84
2022/06/21 11:11:58;;;;;;;3.28;1.10;;;28.70;44.10;;;;;;6155144;23;20021;-83
2022/06/21 11:14:50;;;;;;;5.25;0.90;;;29.10;43.30;;;;;;6130304;23;20017;-83
2022/06/21 11:17:45;;;;;;;3.55;0.90;;;30.10;42.40;;;;;;6154815;23;20418;-84
2022/06/21 11:20:36;;;;;;;2.85;0.82;;;30.70;42.10;;;;;;6043830;23;20023;-83
2022/06/21 11:23:23;;;;;;;2.55;0.70;;;30.90;40.50;;;;;;6067328;23;20147;-83
2022/06/21 11:25:53;;;;;;;4.00;1.00;;;31.00;39.50;;;;;;6067037;23;20045;-83
2022/06/21 11:28:18;;;;;;;3.07;0.73;;;31.40;38.50;;;;;;6067324;23;20027;-83
2022/06/21 11:30:54;;;;;;;3.95;0.80;;;31.60;38.00;;;;;;6080534;23;20250;-84
2022/06/21 11:33:38;;;;;;;2.47;0.88;;;32.00;37.40;;;;;;6047924;23;20060;-82
2022/06/21 11:36:25;;;;;;;3.17;1.13;;;32.30;36.00;;;;;;6098377;23;20026;-83
2022/06/21 11:39:18;;;;;;;3.20;1.02;;;32.30;36.60;;;;;;6096046;23;20114;-83
2022/06/21 11:42:05;;;;;;;5.05;1.20;;;32.10;36.90;;;;;;6095968;23;20104;-83
2022/06/21 11:45:01;;;;;;;4.22;1.17;;;32.00;37.90;;;;;;6095792;23;20383;-83
2022/06/21 11:47:55;;;;;;;6.32;1.10;;;32.40;36.60;;;;;;6071922;23;20070;-82
2022/06/21 11:50:27;;;;;;;3.45;0.88;;;32.70;38.30;;;;;;6095768;23;20085;-83
2022/06/21 11:53:11;;;;;;;4.72;1.20;;;32.90;38.60;;;;;;6048575;23;20023;-83
2022/06/21 11:55:48;;;;;;;7.20;1.20;;;33.20;38.80;;;;;;6110560;23;20026;-84
2022/06/21 11:58:28;;;;;;;5.88;1.63;;;33.60;38.00;;;;;;6222353;23;20391;-83
2022/06/21 12:01:09;;;;;;;5.18;1.23;;;34.00;36.40;;;;;;6249539;23;20016;-83
2022/06/21 12:03:55;;;;;;;2.90;1.40;;;33.80;36.70;;;;;;6221255;23;20058;-83
2022/06/21 12:06:55;;;;;;;3.17;1.20;;;32.80;36.20;;;;;;6221725;23;20082;-83
2022/06/21 12:09:35;;;;;;;3.85;1.17;;;32.40;37.50;;;;;;6221431;23;20020;-84
2022/06/21 12:12:31;;;;;;;3.88;1.17;;;31.80;37.20;;;;;;6247560;23;20016;-83
2022/06/21 12:15:15;;;;;;;4.53;1.02;;;30.90;39.10;;;;;;6221173;23;20066;-83
2022/06/21 12:18:00;;;;;;;4.47;1.00;;;29.90;39.60;;;;;;6221839;23;20026;-83
2022/06/21 12:20:37;;;;;;;5.15;1.05;;;29.70;39.70;;;;;;6196578;23;20016;-84
2022/06/21 12:23:23;;;;;;;3.33;0.90;;;29.70;39.50;;;;;;6248168;23;20019;-83
2022/06/21 12:25:50;;;;;;;5.80;1.30;;;29.50;39.90;;;;;;6248245;23;20047;-83
2022/06/21 12:28:19;;;;;;;4.47;1.17;;;29.30;41.50;;;;;;6248147;23;20027;-84
2022/06/21 12:30:46;;;;;;;5.45;1.38;;;29.10;42.10;;;;;;6247072;23;20016;-83
2022/06/21 12:33:15;;;;;;;4.28;0.93;;;29.10;40.60;;;;;;6247265;23;20387;-83
2022/06/21 12:36:24;;;;;;;6.10;1.00;;;29.10;40.80;;;;;;6220336;23;20055;-83
2022/06/21 12:39:12;;;;;;;3.87;0.90;;;29.40;41.30;;;;;;6154163;23;20022;-82
2022/06/21 12:41:50;;;;;;;1.90;0.80;;;29.70;39.30;;;;;;6129232;23;20021;-83
2022/06/21 12:44:35;;;;;;;3.90;0.95;;;29.70;41.80;;;;;;6129482;23;20045;-83
2022/06/21 12:47:37;;;;;;;4.10;0.95;;;29.60;41.90;;;;;;6129443;23;20018;-83
2022/06/21 12:50:24;;;;;;;3.85;1.00;;;29.50;42.30;;;;;;6104673;23;20064;-83
2022/06/21 12:53:17;;;;;;;2.13;0.80;;;29.80;41.90;;;;;;6153901;23;20072;-83
2022/06/21 12:56:04;;;;;;;4.30;0.85;;;30.30;40.50;;;;;;6154135;23;20021;-83
2022/06/21 12:58:32;;;;;;;3.90;0.80;;;30.80;39.40;;;;;;6153668;23;20025;-83
2022/06/21 13:01:04;;;;;;;2.85;0.70;;;30.50;39.70;;;;;;6153580;23;20025;-83
2022/06/21 13:03:46;;;;;;;3.55;1.10;;;30.30;40.70;;;;;;6154037;23;20390;-82
2022/06/21 13:06:38;;;;;;;2.42;1.00;;;29.80;40.30;;;;;;6153746;23;20084;-83
2022/06/21 13:09:07;;;;;;;2.60;0.80;;;29.00;41.50;;;;;;6154008;23;20049;-84
2022/06/21 13:11:54;;;;;;;4.45;0.90;;;28.20;41.60;;;;;;6129146;23;20112;-83
2022/06/21 13:14:50;;;;;;;4.40;0.95;;;27.60;42.20;;;;;;6177708;23;20344;-83
2022/06/21 13:17:51;;;;;;;2.92;0.90;;;27.20;43.20;;;;;;6219795;23;20021;-83
2022/06/21 13:20:48;;;;;;;6.32;0.85;;;26.90;44.00;;;;;;6219940;23;20020;-83
2022/06/21 13:23:32;;;;;;;1.80;0.82;;;27.10;44.30;;;;;;6241515;23;20091;-83
2022/06/21 13:26:23;;;;;;;5.22;1.15;;;27.60;44.10;;;;;;6246832;23;20047;-83
2022/06/21 13:29:14;;;;;;;2.17;0.80;;;28.00;43.30;;;;;;6246920;23;20016;-83
2022/06/21 13:31:48;;;;;;;5.47;1.15;;;28.50;44.50;;;;;;6246546;23;20016;-85
2022/06/21 13:34:47;;;;;;;3.13;0.88;;;29.20;43.10;;;;;;6246814;23;20016;-83
2022/06/21 13:37:23;;;;;;;3.72;0.93;;;29.90;42.10;;;;;;6153575;23;20017;-83
2022/06/21 13:40:08;;;;;;;5.30;0.93;;;29.70;40.90;;;;;;6153520;23;20100;-84
2022/06/21 13:42:40;;;;;;;1.80;0.90;;;29.40;41.00;;;;;;6153467;23;20469;-83
2022/06/21 13:45:34;;;;;;;3.72;1.00;;;29.40;41.70;;;;;;6153613;23;20083;-84
2022/06/21 13:48:27;;;;;;;3.88;1.00;;;29.80;40.40;;;;;;6153810;23;20182;-82
2022/06/21 13:51:14;;;;;;;4.00;0.90;;;30.20;40.00;;;;;;6153529;23;20322;-83
2022/06/21 13:53:51;;;;;;;2.85;0.88;;;30.50;40.10;;;;;;6153380;23;20088;-81
2022/06/21 13:56:46;;;;;;;1.98;0.80;;;30.80;38.80;;;;;;6129017;23;20021;-84
2022/06/21 13:59:21;;;;;;;2.08;0.90;;;31.00;39.60;;;;;;6153353;23;20028;-83